MET'MAP v2.0
soon released !

Expected late october,
this new version will be
more efficient, smarter,
and hosted on a brand new
server x3 powerfull...
...and still free !


Not compatible ?
Try the mobile version !

LOG IN : | Subscribe | Disclaimer | Who is Orbifly ? |
ICAO code :

TAF - LIRP Galileo Galilei Pisa - 18 Jan 2020 03:44 UTC
Data Sources :     NOAA   


- Airport Elevation : 6 ft
- IATA code : PSA
- No reported NOTAMs.


LIRP - Galileo Galilei Pisa

Latest METAR recorded : 2015/08/11 07:45 LIRP 110745Z 16003KT 9999 FEW080 22/17 Q1012 NOSIG
TAF TAF LIRP
Valid from the 18 at 00:00 until the 19 at 00:00 UTC


172300Z 1800/1824 11007KT 8000 SCT030 BKN060
TEMPO 1801/1812 12010KT 5000 RA BR FEW025 BKN035
PROB40
TEMPO 1803/1809 3000 SHRA FEW020CB BKN030
BECMG 1813/1815 29013KT 7000 SCT030

Source NOAA


MET'MAP, your aeronautical weather chart ! - Copyright ORBIFLY December 2007

Programming & Development : Alexandra Zaïnal
Co-Developer : Marc-Olivier Méhu
Technical & hardware support : Manuel Goepfert
Concept & Financing : Baudouin d'Aumeries